sensor_id;sensor_type;location;lat;lon;timestamp;temperature;humidity
1025;DHT22;501;48.214;11.350;2023-06-10T00:01:54;18.00;41.20
1025;DHT22;501;48.214;11.350;2023-06-10T00:04:28;17.90;41.20
1025;DHT22;501;48.214;11.350;2023-06-10T00:06:53;17.90;41.30
1025;DHT22;501;48.214;11.350;2023-06-10T00:09:19;17.80;41.50
1025;DHT22;501;48.214;11.350;2023-06-10T00:11:46;17.80;42.10
1025;DHT22;501;48.214;11.350;2023-06-10T00:14:12;17.80;42.40
1025;DHT22;501;48.214;11.350;2023-06-10T00:16:38;17.80;42.50
1025;DHT22;501;48.214;11.350;2023-06-10T00:19:04;17.80;42.40
1025;DHT22;501;48.214;11.350;2023-06-10T00:21:31;17.80;42.50
1025;DHT22;501;48.214;11.350;2023-06-10T00:24:11;17.80;42.60
1025;DHT22;501;48.214;11.350;2023-06-10T00:26:40;17.80;42.70
1025;DHT22;501;48.214;11.350;2023-06-10T00:29:07;17.80;42.90
1025;DHT22;501;48.214;11.350;2023-06-10T00:31:37;17.70;42.60
1025;DHT22;501;48.214;11.350;2023-06-10T00:34:03;17.70;42.80
1025;DHT22;501;48.214;11.350;2023-06-10T00:36:28;17.80;42.80
1025;DHT22;501;48.214;11.350;2023-06-10T00:38:55;17.80;42.70
1025;DHT22;501;48.214;11.350;2023-06-10T00:41:20;17.70;42.80
1025;DHT22;501;48.214;11.350;2023-06-10T00:43:46;17.70;42.60
1025;DHT22;501;48.214;11.350;2023-06-10T00:46:12;17.70;42.70
1025;DHT22;501;48.214;11.350;2023-06-10T00:48:40;17.70;42.90
1025;DHT22;501;48.214;11.350;2023-06-10T00:51:06;17.70;42.60
1025;DHT22;501;48.214;11.350;2023-06-10T00:53:35;17.70;42.70
1025;DHT22;501;48.214;11.350;2023-06-10T00:56:02;17.70;42.60
1025;DHT22;501;48.214;11.350;2023-06-10T00:58:30;17.70;42.70
1025;DHT22;501;48.214;11.350;2023-06-10T01:00:56;17.60;42.80
1025;DHT22;501;48.214;11.350;2023-06-10T01:03:23;17.60;42.80
1025;DHT22;501;48.214;11.350;2023-06-10T01:05:57;17.60;42.60
1025;DHT22;501;48.214;11.350;2023-06-10T01:11:17;17.50;42.70
1025;DHT22;501;48.214;11.350;2023-06-10T01:13:45;17.50;42.90
1025;DHT22;501;48.214;11.350;2023-06-10T01:16:11;17.50;42.80
1025;DHT22;501;48.214;11.350;2023-06-10T01:18:37;17.40;42.70
1025;DHT22;501;48.214;11.350;2023-06-10T01:21:04;17.40;42.80
1025;DHT22;501;48.214;11.350;2023-06-10T01:23:30;17.30;43.00
1025;DHT22;501;48.214;11.350;2023-06-10T01:26:00;17.30;43.00
1025;DHT22;501;48.214;11.350;2023-06-10T01:31:21;17.30;43.20
1025;DHT22;501;48.214;11.350;2023-06-10T01:33:51;17.20;43.10
1025;DHT22;501;48.214;11.350;2023-06-10T01:36:19;17.20;43.60
1025;DHT22;501;48.214;11.350;2023-06-10T01:38:47;17.10;43.60
1025;DHT22;501;48.214;11.350;2023-06-10T01:41:14;17.10;43.80
1025;DHT22;501;48.214;11.350;2023-06-10T01:43:43;17.00;44.20
1025;DHT22;501;48.214;11.350;2023-06-10T01:46:09;17.00;44.60
1025;DHT22;501;48.214;11.350;2023-06-10T01:48:35;17.00;44.90
1025;DHT22;501;48.214;11.350;2023-06-10T01:51:01;16.90;45.40
1025;DHT22;501;48.214;11.350;2023-06-10T01:53:26;16.80;45.40
1025;DHT22;501;48.214;11.350;2023-06-10T01:55:52;16.70;45.60
1025;DHT22;501;48.214;11.350;2023-06-10T01:58:17;16.70;45.90
1025;DHT22;501;48.214;11.350;2023-06-10T02:00:43;16.60;46.20
1025;DHT22;501;48.214;11.350;2023-06-10T02:03:09;16.60;46.20
1025;DHT22;501;48.214;11.350;2023-06-10T02:05:34;16.50;46.30
1025;DHT22;501;48.214;11.350;2023-06-10T02:08:00;16.50;46.80
1025;DHT22;501;48.214;11.350;2023-06-10T02:10:26;16.40;47.20
1025;DHT22;501;48.214;11.350;2023-06-10T02:12:52;16.30;47.30
1025;DHT22;501;48.214;11.350;2023-06-10T02:15:17;16.30;47.30
1025;DHT22;501;48.214;11.350;2023-06-10T02:17:43;16.30;48.20
1025;DHT22;501;48.214;11.350;2023-06-10T02:20:10;16.20;48.40
1025;DHT22;501;48.214;11.350;2023-06-10T02:22:36;16.20;48.10
1025;DHT22;501;48.214;11.350;2023-06-10T02:25:02;16.10;48.20
1025;DHT22;501;48.214;11.350;2023-06-10T02:27:29;16.10;49.10
1025;DHT22;501;48.214;11.350;2023-06-10T02:29:56;16.00;49.10
1025;DHT22;501;48.214;11.350;2023-06-10T02:32:22;16.00;49.30
1025;DHT22;501;48.214;11.350;2023-06-10T02:34:48;16.00;49.60
1025;DHT22;501;48.214;11.350;2023-06-10T02:37:15;15.90;49.70
1025;DHT22;501;48.214;11.350;2023-06-10T02:39:41;15.90;49.90
1025;DHT22;501;48.214;11.350;2023-06-10T02:42:07;15.90;50.30
1025;DHT22;501;48.214;11.350;2023-06-10T02:44:33;15.90;50.40
1025;DHT22;501;48.214;11.350;2023-06-10T02:46:58;15.90;50.80
1025;DHT22;501;48.214;11.350;2023-06-10T02:49:25;15.90;51.20
1025;DHT22;501;48.214;11.350;2023-06-10T02:51:53;15.90;51.10
1025;DHT22;501;48.214;11.350;2023-06-10T02:54:19;15.80;51.10
1025;DHT22;501;48.214;11.350;2023-06-10T02:56:46;15.80;51.10
1025;DHT22;501;48.214;11.350;2023-06-10T02:59:13;15.80;51.10
1025;DHT22;501;48.214;11.350;2023-06-10T03:01:39;15.70;51.50
1025;DHT22;501;48.214;11.350;2023-06-10T03:04:05;15.70;51.60
1025;DHT22;501;48.214;11.350;2023-06-10T03:06:31;15.70;51.40
1025;DHT22;501;48.214;11.350;2023-06-10T03:08:59;15.70;51.70
1025;DHT22;501;48.214;11.350;2023-06-10T03:11:25;15.60;51.80
1025;DHT22;501;48.214;11.350;2023-06-10T03:13:51;15.60;52.30
1025;DHT22;501;48.214;11.350;2023-06-10T03:16:19;15.60;52.30
1025;DHT22;501;48.214;11.350;2023-06-10T03:18:45;15.60;52.30
1025;DHT22;501;48.214;11.350;2023-06-10T03:21:10;15.60;53.10
1025;DHT22;501;48.214;11.350;2023-06-10T03:23:36;15.60;54.10
1025;DHT22;501;48.214;11.350;2023-06-10T03:26:02;15.60;54.10
1025;DHT22;501;48.214;11.350;2023-06-10T03:28:30;15.70;53.70
1025;DHT22;501;48.214;11.350;2023-06-10T03:30:56;15.70;53.90
1025;DHT22;501;48.214;11.350;2023-06-10T03:33:22;15.70;53.80
1025;DHT22;501;48.214;11.350;2023-06-10T03:35:47;15.80;53.80
1025;DHT22;501;48.214;11.350;2023-06-10T03:38:13;15.70;53.00
1025;DHT22;501;48.214;11.350;2023-06-10T03:40:39;15.70;53.20
1025;DHT22;501;48.214;11.350;2023-06-10T03:43:05;15.70;53.00
1025;DHT22;501;48.214;11.350;2023-06-10T03:45:31;15.70;52.80
1025;DHT22;501;48.214;11.350;2023-06-10T03:47:57;15.70;52.90
1025;DHT22;501;48.214;11.350;2023-06-10T03:50:23;15.70;52.90
1025;DHT22;501;48.214;11.350;2023-06-10T03:52:49;15.70;52.80
1025;DHT22;501;48.214;11.350;2023-06-10T03:55:15;15.70;53.30
1025;DHT22;501;48.214;11.350;2023-06-10T03:57:42;15.70;52.90
1025;DHT22;501;48.214;11.350;2023-06-10T04:00:08;15.70;53.30
1025;DHT22;501;48.214;11.350;2023-06-10T04:02:38;15.70;53.10
1025;DHT22;501;48.214;11.350;2023-06-10T04:05:14;15.80;53.00
1025;DHT22;501;48.214;11.350;2023-06-10T04:07:41;15.80;52.90
1025;DHT22;501;48.214;11.350;2023-06-10T04:10:08;15.80;53.30
1025;DHT22;501;48.214;11.350;2023-06-10T04:12:34;15.80;54.10
1025;DHT22;501;48.214;11.350;2023-06-10T04:15:00;15.90;54.40
1025;DHT22;501;48.214;11.350;2023-06-10T04:17:26;15.90;54.40
1025;DHT22;501;48.214;11.350;2023-06-10T04:19:52;16.00;54.50
1025;DHT22;501;48.214;11.350;2023-06-10T04:22:18;16.00;54.50
1025;DHT22;501;48.214;11.350;2023-06-10T04:24:44;16.00;54.50
1025;DHT22;501;48.214;11.350;2023-06-10T04:27:11;16.10;54.50
1025;DHT22;501;48.214;11.350;2023-06-10T04:29:37;16.10;54.50
1025;DHT22;501;48.214;11.350;2023-06-10T04:32:03;16.20;54.90
1025;DHT22;501;48.214;11.350;2023-06-10T04:34:30;16.20;54.20
1025;DHT22;501;48.214;11.350;2023-06-10T04:36:56;16.30;54.70
1025;DHT22;501;48.214;11.350;2023-06-10T04:39:22;16.30;54.60
1025;DHT22;501;48.214;11.350;2023-06-10T04:41:48;16.40;54.50
1025;DHT22;501;48.214;11.350;2023-06-10T04:44:13;16.40;54.10
1025;DHT22;501;48.214;11.350;2023-06-10T04:46:39;16.40;54.70
1025;DHT22;501;48.214;11.350;2023-06-10T04:49:05;16.50;54.70
1025;DHT22;501;48.214;11.350;2023-06-10T04:51:31;16.60;54.40
1025;DHT22;501;48.214;11.350;2023-06-10T04:53:58;16.60;54.40
1025;DHT22;501;48.214;11.350;2023-06-10T04:56:23;16.70;54.50
1025;DHT22;501;48.214;11.350;2023-06-10T04:58:49;16.80;54.50
1025;DHT22;501;48.214;11.350;2023-06-10T05:01:15;16.80;54.50
1025;DHT22;501;48.214;11.350;2023-06-10T05:03:41;16.90;54.20
1025;DHT22;501;48.214;11.350;2023-06-10T05:06:06;17.00;54.60
1025;DHT22;501;48.214;11.350;2023-06-10T05:08:33;17.10;53.80
1025;DHT22;501;48.214;11.350;2023-06-10T05:10:58;17.20;53.20
1025;DHT22;501;48.214;11.350;2023-06-10T05:13:24;17.30;53.00
1025;DHT22;501;48.214;11.350;2023-06-10T05:15:50;17.40;52.70
1025;DHT22;501;48.214;11.350;2023-06-10T05:18:15;17.40;52.60
1025;DHT22;501;48.214;11.350;2023-06-10T05:20:41;17.60;52.70
1025;DHT22;501;48.214;11.350;2023-06-10T05:23:07;17.60;51.80
1025;DHT22;501;48.214;11.350;2023-06-10T05:25:33;17.70;51.70
1025;DHT22;501;48.214;11.350;2023-06-10T05:28:01;17.80;51.70
1025;DHT22;501;48.214;11.350;2023-06-10T05:30:27;17.90;51.60
1025;DHT22;501;48.214;11.350;2023-06-10T05:32:53;17.90;51.40
1025;DHT22;501;48.214;11.350;2023-06-10T05:35:19;18.00;51.70
1025;DHT22;501;48.214;11.350;2023-06-10T05:37:45;18.00;51.20
1025;DHT22;501;48.214;11.350;2023-06-10T05:40:11;18.10;51.70
1025;DHT22;501;48.214;11.350;2023-06-10T05:42:36;18.20;51.30
1025;DHT22;501;48.214;11.350;2023-06-10T05:45:02;18.30;50.50
1025;DHT22;501;48.214;11.350;2023-06-10T05:47:28;18.30;51.10
1025;DHT22;501;48.214;11.350;2023-06-10T05:49:54;18.40;51.10
1025;DHT22;501;48.214;11.350;2023-06-10T05:52:20;18.40;50.70
1025;DHT22;501;48.214;11.350;2023-06-10T05:54:46;18.40;50.40
1025;DHT22;501;48.214;11.350;2023-06-10T05:57:11;18.50;50.20
1025;DHT22;501;48.214;11.350;2023-06-10T05:59:37;18.50;50.40
1025;DHT22;501;48.214;11.350;2023-06-10T06:02:03;18.50;50.00
1025;DHT22;501;48.214;11.350;2023-06-10T06:04:29;18.60;50.50
1025;DHT22;501;48.214;11.350;2023-06-10T06:06:54;18.60;50.00
1025;DHT22;501;48.214;11.350;2023-06-10T06:09:20;18.70;50.10
1025;DHT22;501;48.214;11.350;2023-06-10T06:11:46;18.70;49.60
1025;DHT22;501;48.214;11.350;2023-06-10T06:14:14;18.80;50.20
1025;DHT22;501;48.214;11.350;2023-06-10T06:16:40;18.80;49.60
1025;DHT22;501;48.214;11.350;2023-06-10T06:19:06;18.90;49.30
1025;DHT22;501;48.214;11.350;2023-06-10T06:21:31;18.90;48.50
1025;DHT22;501;48.214;11.350;2023-06-10T06:23:57;19.00;48.60
1025;DHT22;501;48.214;11.350;2023-06-10T06:26:23;19.10;48.80
1025;DHT22;501;48.214;11.350;2023-06-10T06:28:49;19.10;48.50
1025;DHT22;501;48.214;11.350;2023-06-10T06:31:14;19.20;47.90
1025;DHT22;501;48.214;11.350;2023-06-10T06:33:40;19.30;47.40
1025;DHT22;501;48.214;11.350;2023-06-10T06:36:06;19.30;47.10
1025;DHT22;501;48.214;11.350;2023-06-10T06:38:31;19.30;47.20
1025;DHT22;501;48.214;11.350;2023-06-10T06:40:57;19.40;46.80
1025;DHT22;501;48.214;11.350;2023-06-10T06:43:28;19.40;46.10
1025;DHT22;501;48.214;11.350;2023-06-10T06:45:54;19.40;46.30
1025;DHT22;501;48.214;11.350;2023-06-10T06:48:20;19.40;46.70
1025;DHT22;501;48.214;11.350;2023-06-10T06:50:46;19.50;46.20
1025;DHT22;501;48.214;11.350;2023-06-10T06:53:12;19.50;46.30
1025;DHT22;501;48.214;11.350;2023-06-10T06:55:37;19.60;46.40
1025;DHT22;501;48.214;11.350;2023-06-10T06:58:03;19.60;45.90
1025;DHT22;501;48.214;11.350;2023-06-10T07:00:30;19.70;45.40
1025;DHT22;501;48.214;11.350;2023-06-10T07:02:55;19.70;45.60
1025;DHT22;501;48.214;11.350;2023-06-10T07:05:23;19.70;45.50
1025;DHT22;501;48.214;11.350;2023-06-10T07:07:50;19.70;45.70
1025;DHT22;501;48.214;11.350;2023-06-10T07:10:23;19.80;46.20
1025;DHT22;501;48.214;11.350;2023-06-10T07:12:50;19.80;46.10
1025;DHT22;501;48.214;11.350;2023-06-10T07:15:16;19.90;45.90
1025;DHT22;501;48.214;11.350;2023-06-10T07:17:41;20.00;45.90
1025;DHT22;501;48.214;11.350;2023-06-10T07:20:07;20.10;45.50
1025;DHT22;501;48.214;11.350;2023-06-10T07:22:33;20.10;45.80
1025;DHT22;501;48.214;11.350;2023-06-10T07:24:59;20.20;44.90
1025;DHT22;501;48.214;11.350;2023-06-10T07:27:24;20.20;44.30
1025;DHT22;501;48.214;11.350;2023-06-10T07:29:51;20.30;44.40
1025;DHT22;501;48.214;11.350;2023-06-10T07:32:16;20.30;44.90
1025;DHT22;501;48.214;11.350;2023-06-10T07:34:42;20.40;43.90
1025;DHT22;501;48.214;11.350;2023-06-10T07:37:07;20.40;43.40
1025;DHT22;501;48.214;11.350;2023-06-10T07:39:34;20.50;42.80
1025;DHT22;501;48.214;11.350;2023-06-10T07:42:00;20.50;42.30
1025;DHT22;501;48.214;11.350;2023-06-10T07:44:25;20.60;42.40
1025;DHT22;501;48.214;11.350;2023-06-10T07:46:51;20.60;41.50
1025;DHT22;501;48.214;11.350;2023-06-10T07:49:17;20.70;40.80
1025;DHT22;501;48.214;11.350;2023-06-10T07:51:42;20.70;41.00
1025;DHT22;501;48.214;11.350;2023-06-10T07:54:08;20.70;42.20
1025;DHT22;501;48.214;11.350;2023-06-10T07:56:33;20.80;42.00
1025;DHT22;501;48.214;11.350;2023-06-10T07:58:59;20.80;42.20
1025;DHT22;501;48.214;11.350;2023-06-10T08:01:25;20.90;40.50
1025;DHT22;501;48.214;11.350;2023-06-10T08:03:51;20.90;39.40
1025;DHT22;501;48.214;11.350;2023-06-10T08:06:16;21.00;39.50
1025;DHT22;501;48.214;11.350;2023-06-10T08:08:43;21.00;39.90
1025;DHT22;501;48.214;11.350;2023-06-10T08:11:10;21.10;39.50
1025;DHT22;501;48.214;11.350;2023-06-10T08:13:36;21.10;39.60
1025;DHT22;501;48.214;11.350;2023-06-10T08:16:05;21.20;39.10
1025;DHT22;501;48.214;11.350;2023-06-10T08:18:31;21.20;39.60
1025;DHT22;501;48.214;11.350;2023-06-10T08:20:57;21.30;39.20
1025;DHT22;501;48.214;11.350;2023-06-10T08:23:23;21.30;39.70
1025;DHT22;501;48.214;11.350;2023-06-10T08:25:48;21.40;39.30
1025;DHT22;501;48.214;11.350;2023-06-10T08:28:14;21.40;38.90
1025;DHT22;501;48.214;11.350;2023-06-10T08:30:40;21.50;39.50
1025;DHT22;501;48.214;11.350;2023-06-10T08:33:05;21.50;38.90
1025;DHT22;501;48.214;11.350;2023-06-10T08:35:31;21.50;38.80
1025;DHT22;501;48.214;11.350;2023-06-10T08:37:56;21.60;37.70
1025;DHT22;501;48.214;11.350;2023-06-10T08:40:22;21.70;37.80
1025;DHT22;501;48.214;11.350;2023-06-10T08:45:17;21.90;37.20
1025;DHT22;501;48.214;11.350;2023-06-10T08:47:46;21.90;36.80
1025;DHT22;501;48.214;11.350;2023-06-10T08:50:16;22.00;36.70
1025;DHT22;501;48.214;11.350;2023-06-10T08:52:44;22.00;37.30
1025;DHT22;501;48.214;11.350;2023-06-10T08:55:15;22.10;35.60
1025;DHT22;501;48.214;11.350;2023-06-10T08:57:45;22.20;36.40
1025;DHT22;501;48.214;11.350;2023-06-10T09:00:12;22.20;36.70
1025;DHT22;501;48.214;11.350;2023-06-10T09:02:38;22.30;36.00
1025;DHT22;501;48.214;11.350;2023-06-10T09:05:05;22.30;35.40
1025;DHT22;501;48.214;11.350;2023-06-10T09:07:31;22.30;35.70
1025;DHT22;501;48.214;11.350;2023-06-10T09:09:59;22.30;36.20
1025;DHT22;501;48.214;11.350;2023-06-10T09:12:28;22.40;36.50
1025;DHT22;501;48.214;11.350;2023-06-10T09:14:53;22.40;36.00
1025;DHT22;501;48.214;11.350;2023-06-10T09:17:19;22.40;35.20
1025;DHT22;501;48.214;11.350;2023-06-10T09:19:46;22.50;35.10
1025;DHT22;501;48.214;11.350;2023-06-10T09:22:12;22.50;35.00
1025;DHT22;501;48.214;11.350;2023-06-10T09:24:39;22.50;36.00
1025;DHT22;501;48.214;11.350;2023-06-10T09:27:08;22.60;35.50
1025;DHT22;501;48.214;11.350;2023-06-10T09:29:48;22.70;36.10
1025;DHT22;501;48.214;11.350;2023-06-10T09:32:18;22.80;36.10
1025;DHT22;501;48.214;11.350;2023-06-10T09:34:44;22.90;34.80
1025;DHT22;501;48.214;11.350;2023-06-10T09:37:10;23.00;34.10
1025;DHT22;501;48.214;11.350;2023-06-10T09:39:37;23.10;33.60
1025;DHT22;501;48.214;11.350;2023-06-10T09:42:16;23.20;33.60
1025;DHT22;501;48.214;11.350;2023-06-10T09:44:42;23.20;33.70
1025;DHT22;501;48.214;11.350;2023-06-10T09:47:20;23.30;33.20
1025;DHT22;501;48.214;11.350;2023-06-10T09:49:46;23.30;32.90
1025;DHT22;501;48.214;11.350;2023-06-10T09:52:11;23.20;32.40
1025;DHT22;501;48.214;11.350;2023-06-10T09:54:37;23.20;31.90
1025;DHT22;501;48.214;11.350;2023-06-10T09:57:07;23.30;32.00
1025;DHT22;501;48.214;11.350;2023-06-10T09:59:37;23.30;31.60
1025;DHT22;501;48.214;11.350;2023-06-10T10:02:03;23.20;31.00
1025;DHT22;501;48.214;11.350;2023-06-10T10:04:30;23.20;31.90
1025;DHT22;501;48.214;11.350;2023-06-10T10:06:56;23.30;32.20
1025;DHT22;501;48.214;11.350;2023-06-10T10:09:21;23.40;30.80
1025;DHT22;501;48.214;11.350;2023-06-10T10:11:48;23.50;30.20
1025;DHT22;501;48.214;11.350;2023-06-10T10:14:16;23.60;30.10
1025;DHT22;501;48.214;11.350;2023-06-10T10:16:43;23.70;30.50
1025;DHT22;501;48.214;11.350;2023-06-10T10:19:20;23.70;29.80
1025;DHT22;501;48.214;11.350;2023-06-10T10:21:54;23.80;30.20
1025;DHT22;501;48.214;11.350;2023-06-10T10:24:26;23.80;29.90
1025;DHT22;501;48.214;11.350;2023-06-10T10:26:58;23.90;30.00
1025;DHT22;501;48.214;11.350;2023-06-10T10:29:33;24.00;29.80
1025;DHT22;501;48.214;11.350;2023-06-10T10:32:01;24.10;29.50
1025;DHT22;501;48.214;11.350;2023-06-10T10:34:37;24.20;29.00
1025;DHT22;501;48.214;11.350;2023-06-10T10:37:04;24.20;29.20
1025;DHT22;501;48.214;11.350;2023-06-10T10:39:34;24.20;28.50
1025;DHT22;501;48.214;11.350;2023-06-10T10:42:02;24.20;29.90
1025;DHT22;501;48.214;11.350;2023-06-10T10:44:29;24.20;29.50
1025;DHT22;501;48.214;11.350;2023-06-10T10:46:56;24.30;29.40
1025;DHT22;501;48.214;11.350;2023-06-10T10:49:22;24.30;29.70
1025;DHT22;501;48.214;11.350;2023-06-10T10:51:57;24.40;28.70
1025;DHT22;501;48.214;11.350;2023-06-10T10:54:31;24.40;28.40
1025;DHT22;501;48.214;11.350;2023-06-10T10:57:13;24.50;28.90
1025;DHT22;501;48.214;11.350;2023-06-10T10:59:55;24.60;27.60
1025;DHT22;501;48.214;11.350;2023-06-10T11:02:42;24.60;27.00
1025;DHT22;501;48.214;11.350;2023-06-10T11:05:15;24.60;27.60
1025;DHT22;501;48.214;11.350;2023-06-10T11:07:55;24.70;28.40
1025;DHT22;501;48.214;11.350;2023-06-10T11:10:35;25.00;28.60
1025;DHT22;501;48.214;11.350;2023-06-10T11:13:09;25.30;28.80
1025;DHT22;501;48.214;11.350;2023-06-10T11:15:39;25.50;28.10
1025;DHT22;501;48.214;11.350;2023-06-10T11:31:48;26.30;26.50
1025;DHT22;501;48.214;11.350;2023-06-10T11:34:15;26.20;26.90
1025;DHT22;501;48.214;11.350;2023-06-10T11:36:45;26.10;26.40
1025;DHT22;501;48.214;11.350;2023-06-10T11:39:11;26.00;26.50
1025;DHT22;501;48.214;11.350;2023-06-10T11:41:38;25.90;27.20
1025;DHT22;501;48.214;11.350;2023-06-10T11:44:09;25.80;27.10
1025;DHT22;501;48.214;11.350;2023-06-10T11:46:35;25.90;27.20
1025;DHT22;501;48.214;11.350;2023-06-10T11:49:01;26.00;27.30
1025;DHT22;501;48.214;11.350;2023-06-10T11:51:32;26.00;27.20
1025;DHT22;501;48.214;11.350;2023-06-10T11:53:57;25.90;27.30
1025;DHT22;501;48.214;11.350;2023-06-10T11:56:25;25.90;27.80
1025;DHT22;501;48.214;11.350;2023-06-10T11:58:56;25.90;27.20
1025;DHT22;501;48.214;11.350;2023-06-10T12:01:26;26.10;27.40
1025;DHT22;501;48.214;11.350;2023-06-10T12:04:02;26.20;27.00
1025;DHT22;501;48.214;11.350;2023-06-10T12:06:41;26.40;26.50
1025;DHT22;501;48.214;11.350;2023-06-10T12:09:23;26.60;26.80
1025;DHT22;501;48.214;11.350;2023-06-10T12:11:52;26.80;26.60
1025;DHT22;501;48.214;11.350;2023-06-10T12:14:56;27.10;26.20
1025;DHT22;501;48.214;11.350;2023-06-10T12:20:07;28.00;25.30
1025;DHT22;501;48.214;11.350;2023-06-10T12:22:40;28.50;24.70
1025;DHT22;501;48.214;11.350;2023-06-10T12:25:07;28.90;23.80
1025;DHT22;501;48.214;11.350;2023-06-10T12:27:34;29.30;23.10
1025;DHT22;501;48.214;11.350;2023-06-10T12:30:01;29.70;23.40
1025;DHT22;501;48.214;11.350;2023-06-10T12:35:07;30.30;21.80
1025;DHT22;501;48.214;11.350;2023-06-10T12:37:33;30.50;21.20
1025;DHT22;501;48.214;11.350;2023-06-10T12:40:03;30.40;21.90
1025;DHT22;501;48.214;11.350;2023-06-10T12:42:32;30.60;20.90
1025;DHT22;501;48.214;11.350;2023-06-10T12:45:03;30.60;21.40
1025;DHT22;501;48.214;11.350;2023-06-10T12:47:38;30.70;21.00
1025;DHT22;501;48.214;11.350;2023-06-10T12:50:06;30.80;21.60
1025;DHT22;501;48.214;11.350;2023-06-10T12:52:32;30.80;20.50
1025;DHT22;501;48.214;11.350;2023-06-10T12:54:58;30.80;20.50
1025;DHT22;501;48.214;11.350;2023-06-10T12:57:24;30.90;20.00
1025;DHT22;501;48.214;11.350;2023-06-10T12:59:49;31.00;20.40
1025;DHT22;501;48.214;11.350;2023-06-10T13:02:18;31.10;20.50
1025;DHT22;501;48.214;11.350;2023-06-10T13:04:45;31.20;19.60
1025;DHT22;501;48.214;11.350;2023-06-10T13:07:11;31.40;19.50
1025;DHT22;501;48.214;11.350;2023-06-10T13:09:36;31.50;19.20
1025;DHT22;501;48.214;11.350;2023-06-10T13:12:02;31.60;18.60
1025;DHT22;501;48.214;11.350;2023-06-10T13:14:28;31.60;18.70
1025;DHT22;501;48.214;11.350;2023-06-10T13:16:54;31.70;18.60
1025;DHT22;501;48.214;11.350;2023-06-10T13:19:20;31.50;18.50
1025;DHT22;501;48.214;11.350;2023-06-10T13:21:49;31.50;19.50
1025;DHT22;501;48.214;11.350;2023-06-10T13:24:15;31.70;18.60
1025;DHT22;501;48.214;11.350;2023-06-10T13:26:40;31.70;18.60
1025;DHT22;501;48.214;11.350;2023-06-10T13:29:06;31.80;19.00
1025;DHT22;501;48.214;11.350;2023-06-10T13:31:33;32.00;18.80
1025;DHT22;501;48.214;11.350;2023-06-10T13:33:59;32.20;18.90
1025;DHT22;501;48.214;11.350;2023-06-10T13:36:25;32.30;18.40
1025;DHT22;501;48.214;11.350;2023-06-10T13:38:50;32.40;18.60
1025;DHT22;501;48.214;11.350;2023-06-10T13:41:16;32.60;18.70
1025;DHT22;501;48.214;11.350;2023-06-10T13:43:42;32.60;19.10
1025;DHT22;501;48.214;11.350;2023-06-10T13:46:07;32.30;19.30
1025;DHT22;501;48.214;11.350;2023-06-10T13:48:33;32.10;19.70
1025;DHT22;501;48.214;11.350;2023-06-10T13:50:59;32.00;20.10
1025;DHT22;501;48.214;11.350;2023-06-10T13:53:25;31.90;20.00
1025;DHT22;501;48.214;11.350;2023-06-10T13:55:51;31.80;19.70
1025;DHT22;501;48.214;11.350;2023-06-10T13:58:17;31.80;20.10
1025;DHT22;501;48.214;11.350;2023-06-10T14:00:42;31.80;20.30
1025;DHT22;501;48.214;11.350;2023-06-10T14:03:08;31.70;20.10
1025;DHT22;501;48.214;11.350;2023-06-10T14:05:33;31.50;20.00
1025;DHT22;501;48.214;11.350;2023-06-10T14:08:00;31.50;20.20
1025;DHT22;501;48.214;11.350;2023-06-10T14:10:25;31.50;20.30
1025;DHT22;501;48.214;11.350;2023-06-10T14:12:51;31.60;20.20
1025;DHT22;501;48.214;11.350;2023-06-10T14:15:17;31.80;20.50
1025;DHT22;501;48.214;11.350;2023-06-10T14:17:42;31.80;19.80
1025;DHT22;501;48.214;11.350;2023-06-10T14:20:08;31.90;18.70
1025;DHT22;501;48.214;11.350;2023-06-10T14:22:34;32.00;18.80
1025;DHT22;501;48.214;11.350;2023-06-10T14:25:00;31.70;18.60
1025;DHT22;501;48.214;11.350;2023-06-10T14:27:25;31.30;18.50
1025;DHT22;501;48.214;11.350;2023-06-10T14:29:51;31.10;19.40
1025;DHT22;501;48.214;11.350;2023-06-10T14:32:17;31.00;19.40
1025;DHT22;501;48.214;11.350;2023-06-10T14:34:42;31.00;19.70
1025;DHT22;501;48.214;11.350;2023-06-10T14:37:10;31.00;19.90
1025;DHT22;501;48.214;11.350;2023-06-10T14:39:35;31.10;19.10
1025;DHT22;501;48.214;11.350;2023-06-10T14:42:01;31.20;19.40
1025;DHT22;501;48.214;11.350;2023-06-10T14:44:27;31.30;19.80
1025;DHT22;501;48.214;11.350;2023-06-10T14:46:53;31.40;19.60
1025;DHT22;501;48.214;11.350;2023-06-10T14:49:19;31.50;19.80
1025;DHT22;501;48.214;11.350;2023-06-10T14:51:44;31.60;19.40
1025;DHT22;501;48.214;11.350;2023-06-10T14:54:10;31.70;19.60
1025;DHT22;501;48.214;11.350;2023-06-10T14:56:36;31.70;19.10
1025;DHT22;501;48.214;11.350;2023-06-10T14:59:02;31.70;19.40
1025;DHT22;501;48.214;11.350;2023-06-10T15:01:27;31.70;18.60
1025;DHT22;501;48.214;11.350;2023-06-10T15:03:53;31.80;19.80
1025;DHT22;501;48.214;11.350;2023-06-10T15:06:19;31.70;18.70
1025;DHT22;501;48.214;11.350;2023-06-10T15:08:47;31.50;18.80
1025;DHT22;501;48.214;11.350;2023-06-10T15:11:16;31.40;18.50
1025;DHT22;501;48.214;11.350;2023-06-10T15:13:42;31.40;18.70
1025;DHT22;501;48.214;11.350;2023-06-10T15:16:07;31.40;17.90
1025;DHT22;501;48.214;11.350;2023-06-10T15:18:33;31.40;17.20
1025;DHT22;501;48.214;11.350;2023-06-10T15:20:59;31.30;17.30
1025;DHT22;501;48.214;11.350;2023-06-10T15:23:24;31.20;17.90
1025;DHT22;501;48.214;11.350;2023-06-10T15:25:50;31.20;18.00
1025;DHT22;501;48.214;11.350;2023-06-10T15:28:16;31.20;18.00
1025;DHT22;501;48.214;11.350;2023-06-10T15:30:41;31.30;17.80
1025;DHT22;501;48.214;11.350;2023-06-10T15:33:07;31.40;17.40
1025;DHT22;501;48.214;11.350;2023-06-10T15:35:33;31.40;17.70
1025;DHT22;501;48.214;11.350;2023-06-10T15:37:59;31.30;17.50
1025;DHT22;501;48.214;11.350;2023-06-10T15:40:25;31.20;17.80
1025;DHT22;501;48.214;11.350;2023-06-10T15:42:51;31.20;18.40
1025;DHT22;501;48.214;11.350;2023-06-10T15:45:17;31.20;19.10
1025;DHT22;501;48.214;11.350;2023-06-10T15:47:42;31.20;19.60
1025;DHT22;501;48.214;11.350;2023-06-10T15:50:09;31.20;19.20
1025;DHT22;501;48.214;11.350;2023-06-10T15:52:35;31.00;19.20
1025;DHT22;501;48.214;11.350;2023-06-10T15:55:01;30.60;18.30
1025;DHT22;501;48.214;11.350;2023-06-10T15:57:27;30.30;18.30
1025;DHT22;501;48.214;11.350;2023-06-10T15:59:53;29.80;18.90
1025;DHT22;501;48.214;11.350;2023-06-10T16:02:19;29.40;19.20
1025;DHT22;501;48.214;11.350;2023-06-10T16:04:45;29.20;19.50
1025;DHT22;501;48.214;11.350;2023-06-10T16:07:10;29.00;20.20
1025;DHT22;501;48.214;11.350;2023-06-10T16:09:36;28.80;20.50
1025;DHT22;501;48.214;11.350;2023-06-10T16:12:01;28.70;20.20
1025;DHT22;501;48.214;11.350;2023-06-10T16:14:28;28.70;20.80
1025;DHT22;501;48.214;11.350;2023-06-10T16:16:53;28.60;20.90
1025;DHT22;501;48.214;11.350;2023-06-10T16:19:23;28.60;20.60
1025;DHT22;501;48.214;11.350;2023-06-10T16:21:49;28.60;20.90
1025;DHT22;501;48.214;11.350;2023-06-10T16:24:15;28.70;20.90
1025;DHT22;501;48.214;11.350;2023-06-10T16:26:40;28.80;21.30
1025;DHT22;501;48.214;11.350;2023-06-10T16:29:06;28.90;21.20